Quick Links (Output Below):   Max & Min Temps   /   Climate Reports   /   Zone Forecasts
River Forecasts   /   Forestry Forecasts   /   Aviation Forecasts   /   Radars   /   Features

Terminal Aerodrome Forecast (Harrison)

Pick a Site:
Arkadelphia | El Dorado | Fayetteville | Fort Smith | Harrison | Highfill | Hot Springs | Jonesboro
Little Rock | Monticello | Mountain Home | Pine Bluff | Texarkana
 Forecast 

KHRO 281140Z 2812/2912 17008KT P6SM SCT250
     FM281500 19014G22KT P6SM SCT035 SCT250
     FM290000 19011KT P6SM SCT250 WS020/19035KT
     FM290500 19008KT P6SM BKN025 WS020/20040KT=


 Latest METARs (Observations) 
How to Decode METARs
14Z KHRO 281353Z AUTO 15010KT 10SM CLR 02/M02 A3020 RMK AO2 SLP233
         T00221022
         
13Z KHRO 281253Z AUTO 15010KT 10SM CLR 02/M03 A3022 RMK AO2 SLP240
         T00221028
         
12Z KHRO 281153Z AUTO 17010KT 10SM CLR 02/M03 A3022 RMK AO2 SLP241
         T00221028 10028 21006 56025
         
11Z KHRO 281053Z AUTO 17009KT 10SM CLR 02/M03 A3024 RMK AO2 SLP246
         T00171028
         
10Z KHRO 280953Z AUTO 18006KT 10SM CLR 02/M03 A3027 RMK AO2 SLP256
         T00221033
         
09Z KHRO 280853Z AUTO 14004KT 10SM CLR 01/M03 A3029 RMK AO2 SLP265
         T00111033 55008
         
08Z KHRO 280753Z AUTO 11004KT 10SM CLR 00/M04 A3028 RMK AO2 SLP261
         T00001039
         
07Z KHRO 280653Z AUTO 13007KT 10SM CLR 00/M04 A3030 RMK AO2 SLP267
         T00001039
         
06Z KHRO 280553Z AUTO 14006KT 10SM CLR M01/M04 A3032 RMK AO2 SLP276
         T10061039 10028 21011 400721028 56021
         
05Z KHRO 280453Z AUTO 14005KT 10SM CLR M01/M04 A3034 RMK AO2 SLP283
         T10061044
         
***** Today's Observations (Above) *****


Back to Main Page
http://www.srh.noaa.gov/lzk/qfcst.php

USA.gov is the U.S. government's official web portal to all federal, state and local government web resources and services.